Weather at Robinson International Air Field

Public forecast

Using degrees Celsius for public forecast. Weather courtesy of forecast.io.

Closest aviation weather report (METAR) to Robinson International Air Field

Closest report is Wiarton Airport, 34.6 nm (64.1 km) N. Retrieved 2020/09/29 12:00 UTC (41 minutes ago):

CYVV 291200Z 26006KT 15SM BKN020 13/11 A2973 RMK SC5 SLP071 DENSITY ALT 900FT

Closest aviation forecast (TAF) to Robinson International Air Field

Closest forecast is Wiarton Airport, 34.6 nm (64.1 km) N. Retrieved 2020/09/29 11:42 UTC (59 minutes ago):

TAF CYVV 291038Z 2911/2923 23012KT P6SM BKN020 TEMPO 2911/2915 SCT020 FM291500 25012KT P6SM -SHRA BKN020 TEMPO 2915/2923 BKN030 RMK NXT FCST BY 291400Z